sensor_id;sensor_type;location;lat;lon;timestamp;P1;durP1;ratioP1;P2;durP2;ratioP2
57800;SDS011;43627;42.728;23.256;2022-09-23T00:01:03;16.17;;;7.07;;
57800;SDS011;43627;42.728;23.256;2022-09-23T00:03:33;15.73;;;6.80;;
57800;SDS011;43627;42.728;23.256;2022-09-23T00:06:02;12.40;;;7.40;;
57800;SDS011;43627;42.728;23.256;2022-09-23T00:08:31;10.13;;;6.90;;
57800;SDS011;43627;42.728;23.256;2022-09-23T00:11:08;11.25;;;7.75;;
57800;SDS011;43627;42.728;23.256;2022-09-23T00:13:37;9.90;;;6.65;;
57800;SDS011;43627;42.728;23.256;2022-09-23T00:16:06;9.52;;;6.30;;
57800;SDS011;43627;42.728;23.256;2022-09-23T00:18:37;9.70;;;6.43;;
57800;SDS011;43627;42.728;23.256;2022-09-23T00:21:05;13.13;;;7.38;;
57800;SDS011;43627;42.728;23.256;2022-09-23T00:23:35;10.82;;;6.57;;
57800;SDS011;43627;42.728;23.256;2022-09-23T00:26:02;13.40;;;6.80;;
57800;SDS011;43627;42.728;23.256;2022-09-23T00:28:31;9.75;;;7.25;;
57800;SDS011;43627;42.728;23.256;2022-09-23T00:31:08;10.50;;;7.15;;
57800;SDS011;43627;42.728;23.256;2022-09-23T00:33:39;9.33;;;6.73;;
57800;SDS011;43627;42.728;23.256;2022-09-23T00:36:08;7.45;;;6.28;;
57800;SDS011;43627;42.728;23.256;2022-09-23T00:38:37;8.55;;;6.50;;
57800;SDS011;43627;42.728;23.256;2022-09-23T00:41:04;13.10;;;7.45;;
57800;SDS011;43627;42.728;23.256;2022-09-23T00:46:48;8.88;;;7.10;;
57800;SDS011;43627;42.728;23.256;2022-09-23T00:49:18;9.52;;;6.72;;
57800;SDS011;43627;42.728;23.256;2022-09-23T00:51:52;12.38;;;8.00;;
57800;SDS011;43627;42.728;23.256;2022-09-23T00:54:23;9.02;;;7.43;;
57800;SDS011;43627;42.728;23.256;2022-09-23T00:56:53;16.38;;;7.07;;
57800;SDS011;43627;42.728;23.256;2022-09-23T00:59:21;9.70;;;7.32;;
57800;SDS011;43627;42.728;23.256;2022-09-23T01:01:50;11.23;;;6.80;;
57800;SDS011;43627;42.728;23.256;2022-09-23T01:04:23;10.40;;;7.38;;
57800;SDS011;43627;42.728;23.256;2022-09-23T01:06:51;13.15;;;7.10;;
57800;SDS011;43627;42.728;23.256;2022-09-23T01:09:18;10.48;;;7.13;;
57800;SDS011;43627;42.728;23.256;2022-09-23T01:17:43;10.65;;;7.70;;
57800;SDS011;43627;42.728;23.256;2022-09-23T01:32:07;14.32;;;7.43;;
57800;SDS011;43627;42.728;23.256;2022-09-23T01:40:36;10.10;;;7.35;;
57800;SDS011;43627;42.728;23.256;2022-09-23T01:43:12;7.93;;;6.43;;
57800;SDS011;43627;42.728;23.256;2022-09-23T01:45:46;9.23;;;6.82;;
57800;SDS011;43627;42.728;23.256;2022-09-23T01:50:49;11.07;;;8.27;;
57800;SDS011;43627;42.728;23.256;2022-09-23T01:53:35;10.73;;;7.32;;
57800;SDS011;43627;42.728;23.256;2022-09-23T01:56:12;9.77;;;7.80;;
57800;SDS011;43627;42.728;23.256;2022-09-23T01:58:46;12.75;;;7.80;;
57800;SDS011;43627;42.728;23.256;2022-09-23T02:01:32;11.68;;;7.32;;
57800;SDS011;43627;42.728;23.256;2022-09-23T02:04:15;9.02;;;7.22;;
57800;SDS011;43627;42.728;23.256;2022-09-23T02:06:57;9.65;;;6.82;;
57800;SDS011;43627;42.728;23.256;2022-09-23T02:09:34;9.98;;;7.15;;
57800;SDS011;43627;42.728;23.256;2022-09-23T02:12:08;9.77;;;6.93;;
57800;SDS011;43627;42.728;23.256;2022-09-23T02:18:10;8.18;;;6.32;;
57800;SDS011;43627;42.728;23.256;2022-09-23T02:20:42;10.15;;;6.70;;
57800;SDS011;43627;42.728;23.256;2022-09-23T02:23:20;10.10;;;6.82;;
57800;SDS011;43627;42.728;23.256;2022-09-23T02:28:37;9.00;;;6.10;;
57800;SDS011;43627;42.728;23.256;2022-09-23T02:31:24;8.63;;;6.72;;
57800;SDS011;43627;42.728;23.256;2022-09-23T02:34:41;9.25;;;6.45;;
57800;SDS011;43627;42.728;23.256;2022-09-23T02:37:10;11.27;;;7.25;;
57800;SDS011;43627;42.728;23.256;2022-09-23T02:39:48;9.73;;;6.97;;
57800;SDS011;43627;42.728;23.256;2022-09-23T02:42:21;11.48;;;7.60;;
57800;SDS011;43627;42.728;23.256;2022-09-23T02:44:56;11.60;;;8.02;;
57800;SDS011;43627;42.728;23.256;2022-09-23T02:47:26;9.85;;;7.45;;
57800;SDS011;43627;42.728;23.256;2022-09-23T02:49:56;9.68;;;6.97;;
57800;SDS011;43627;42.728;23.256;2022-09-23T02:52:23;9.68;;;7.10;;
57800;SDS011;43627;42.728;23.256;2022-09-23T02:54:50;8.73;;;6.68;;
57800;SDS011;43627;42.728;23.256;2022-09-23T02:57:17;11.27;;;7.50;;
57800;SDS011;43627;42.728;23.256;2022-09-23T02:59:44;9.68;;;6.57;;
57800;SDS011;43627;42.728;23.256;2022-09-23T03:02:21;14.55;;;7.78;;
57800;SDS011;43627;42.728;23.256;2022-09-23T03:05:15;12.77;;;7.95;;
57800;SDS011;43627;42.728;23.256;2022-09-23T03:07:57;8.77;;;6.85;;
57800;SDS011;43627;42.728;23.256;2022-09-23T03:10:39;11.20;;;7.75;;
57800;SDS011;43627;42.728;23.256;2022-09-23T03:13:33;12.25;;;6.63;;
57800;SDS011;43627;42.728;23.256;2022-09-23T03:16:13;9.10;;;7.30;;
57800;SDS011;43627;42.728;23.256;2022-09-23T03:19:21;10.43;;;7.20;;
57800;SDS011;43627;42.728;23.256;2022-09-23T03:24:33;10.32;;;7.18;;
57800;SDS011;43627;42.728;23.256;2022-09-23T03:27:04;11.25;;;7.63;;
57800;SDS011;43627;42.728;23.256;2022-09-23T03:29:42;12.55;;;8.02;;
57800;SDS011;43627;42.728;23.256;2022-09-23T03:32:16;11.85;;;7.68;;
57800;SDS011;43627;42.728;23.256;2022-09-23T03:34:47;10.23;;;7.82;;
57800;SDS011;43627;42.728;23.256;2022-09-23T03:37:18;10.95;;;7.43;;
57800;SDS011;43627;42.728;23.256;2022-09-23T03:42:58;14.85;;;8.02;;
57800;SDS011;43627;42.728;23.256;2022-09-23T03:45:28;13.45;;;8.73;;
57800;SDS011;43627;42.728;23.256;2022-09-23T03:47:57;12.32;;;8.43;;
57800;SDS011;43627;42.728;23.256;2022-09-23T03:50:24;14.38;;;9.63;;
57800;SDS011;43627;42.728;23.256;2022-09-23T03:52:52;15.63;;;11.30;;
57800;SDS011;43627;42.728;23.256;2022-09-23T03:55:19;23.98;;;11.98;;
57800;SDS011;43627;42.728;23.256;2022-09-23T03:57:46;20.23;;;12.57;;
57800;SDS011;43627;42.728;23.256;2022-09-23T04:00:14;18.60;;;13.00;;
57800;SDS011;43627;42.728;23.256;2022-09-23T04:02:41;20.60;;;14.00;;
57800;SDS011;43627;42.728;23.256;2022-09-23T04:05:08;18.95;;;12.77;;
57800;SDS011;43627;42.728;23.256;2022-09-23T04:07:36;22.15;;;14.27;;
57800;SDS011;43627;42.728;23.256;2022-09-23T04:10:04;20.83;;;14.48;;
57800;SDS011;43627;42.728;23.256;2022-09-23T04:12:32;22.20;;;14.60;;
57800;SDS011;43627;42.728;23.256;2022-09-23T04:14:58;21.10;;;13.90;;
57800;SDS011;43627;42.728;23.256;2022-09-23T04:17:25;20.30;;;14.40;;
57800;SDS011;43627;42.728;23.256;2022-09-23T04:19:52;20.13;;;14.18;;
57800;SDS011;43627;42.728;23.256;2022-09-23T04:22:18;20.00;;;14.85;;
57800;SDS011;43627;42.728;23.256;2022-09-23T04:24:45;18.63;;;13.13;;
57800;SDS011;43627;42.728;23.256;2022-09-23T04:27:12;20.23;;;13.82;;
57800;SDS011;43627;42.728;23.256;2022-09-23T04:29:38;19.40;;;13.13;;
57800;SDS011;43627;42.728;23.256;2022-09-23T04:32:05;20.50;;;13.32;;
57800;SDS011;43627;42.728;23.256;2022-09-23T04:34:31;15.57;;;11.43;;
57800;SDS011;43627;42.728;23.256;2022-09-23T04:36:58;17.27;;;11.43;;
57800;SDS011;43627;42.728;23.256;2022-09-23T04:39:25;17.48;;;10.68;;
57800;SDS011;43627;42.728;23.256;2022-09-23T04:41:51;17.58;;;10.27;;
57800;SDS011;43627;42.728;23.256;2022-09-23T04:44:18;18.85;;;12.48;;
57800;SDS011;43627;42.728;23.256;2022-09-23T04:46:46;15.98;;;11.05;;
57800;SDS011;43627;42.728;23.256;2022-09-23T04:49:14;17.65;;;10.85;;
57800;SDS011;43627;42.728;23.256;2022-09-23T04:51:41;17.85;;;11.23;;
57800;SDS011;43627;42.728;23.256;2022-09-23T04:54:09;15.30;;;10.35;;
57800;SDS011;43627;42.728;23.256;2022-09-23T04:56:37;16.10;;;11.07;;
57800;SDS011;43627;42.728;23.256;2022-09-23T04:59:05;16.08;;;10.40;;
57800;SDS011;43627;42.728;23.256;2022-09-23T05:01:32;16.33;;;10.40;;
57800;SDS011;43627;42.728;23.256;2022-09-23T05:04:02;15.88;;;11.00;;
57800;SDS011;43627;42.728;23.256;2022-09-23T05:06:31;13.35;;;10.07;;
57800;SDS011;43627;42.728;23.256;2022-09-23T05:09:03;13.75;;;8.70;;
57800;SDS011;43627;42.728;23.256;2022-09-23T05:11:32;16.52;;;9.43;;
57800;SDS011;43627;42.728;23.256;2022-09-23T05:13:59;15.02;;;10.18;;
57800;SDS011;43627;42.728;23.256;2022-09-23T05:16:26;17.27;;;9.95;;
57800;SDS011;43627;42.728;23.256;2022-09-23T05:18:53;14.05;;;10.05;;
57800;SDS011;43627;42.728;23.256;2022-09-23T05:21:21;14.50;;;9.90;;
57800;SDS011;43627;42.728;23.256;2022-09-23T05:23:50;16.63;;;10.27;;
57800;SDS011;43627;42.728;23.256;2022-09-23T05:26:25;15.05;;;10.52;;
57800;SDS011;43627;42.728;23.256;2022-09-23T05:28:53;10.35;;;8.40;;
57800;SDS011;43627;42.728;23.256;2022-09-23T05:31:22;15.32;;;9.15;;
57800;SDS011;43627;42.728;23.256;2022-09-23T05:33:51;12.38;;;8.50;;
57800;SDS011;43627;42.728;23.256;2022-09-23T05:36:20;14.95;;;9.05;;
57800;SDS011;43627;42.728;23.256;2022-09-23T05:38:48;13.00;;;9.02;;
57800;SDS011;43627;42.728;23.256;2022-09-23T05:41:17;11.38;;;7.95;;
57800;SDS011;43627;42.728;23.256;2022-09-23T05:43:45;11.52;;;8.00;;
57800;SDS011;43627;42.728;23.256;2022-09-23T05:46:18;11.95;;;7.53;;
57800;SDS011;43627;42.728;23.256;2022-09-23T05:48:48;11.15;;;6.70;;
57800;SDS011;43627;42.728;23.256;2022-09-23T05:51:19;11.20;;;7.65;;
57800;SDS011;43627;42.728;23.256;2022-09-23T05:53:47;9.95;;;7.32;;
57800;SDS011;43627;42.728;23.256;2022-09-23T05:56:18;13.43;;;7.60;;
57800;SDS011;43627;42.728;23.256;2022-09-23T05:58:50;8.98;;;6.97;;
57800;SDS011;43627;42.728;23.256;2022-09-23T06:01:18;10.80;;;7.35;;
57800;SDS011;43627;42.728;23.256;2022-09-23T06:03:47;10.57;;;7.43;;
57800;SDS011;43627;42.728;23.256;2022-09-23T06:06:14;10.57;;;6.88;;
57800;SDS011;43627;42.728;23.256;2022-09-23T06:08:46;8.70;;;6.07;;
57800;SDS011;43627;42.728;23.256;2022-09-23T06:11:13;10.25;;;6.18;;
57800;SDS011;43627;42.728;23.256;2022-09-23T06:13:40;10.75;;;5.95;;
57800;SDS011;43627;42.728;23.256;2022-09-23T06:16:11;8.85;;;6.82;;
57800;SDS011;43627;42.728;23.256;2022-09-23T06:21:07;8.02;;;5.45;;
57800;SDS011;43627;42.728;23.256;2022-09-23T06:23:35;9.90;;;6.43;;
57800;SDS011;43627;42.728;23.256;2022-09-23T06:26:07;12.45;;;6.28;;
57800;SDS011;43627;42.728;23.256;2022-09-23T06:28:35;9.32;;;6.13;;
57800;SDS011;43627;42.728;23.256;2022-09-23T06:31:08;7.72;;;5.75;;
57800;SDS011;43627;42.728;23.256;2022-09-23T06:33:39;7.85;;;5.93;;
57800;SDS011;43627;42.728;23.256;2022-09-23T06:36:08;8.07;;;5.78;;
57800;SDS011;43627;42.728;23.256;2022-09-23T06:38:37;7.97;;;6.10;;
57800;SDS011;43627;42.728;23.256;2022-09-23T06:41:05;8.32;;;5.80;;
57800;SDS011;43627;42.728;23.256;2022-09-23T06:43:32;9.10;;;5.93;;
57800;SDS011;43627;42.728;23.256;2022-09-23T06:45:59;8.60;;;5.57;;
57800;SDS011;43627;42.728;23.256;2022-09-23T06:48:29;7.20;;;5.55;;
57800;SDS011;43627;42.728;23.256;2022-09-23T06:51:01;10.05;;;5.63;;
57800;SDS011;43627;42.728;23.256;2022-09-23T06:53:29;8.98;;;5.50;;
57800;SDS011;43627;42.728;23.256;2022-09-23T06:56:03;9.15;;;4.93;;
57800;SDS011;43627;42.728;23.256;2022-09-23T06:58:32;6.53;;;4.95;;
57800;SDS011;43627;42.728;23.256;2022-09-23T07:01:00;6.00;;;4.82;;
57800;SDS011;43627;42.728;23.256;2022-09-23T07:03:28;5.72;;;4.80;;
57800;SDS011;43627;42.728;23.256;2022-09-23T07:05:56;8.77;;;4.30;;
57800;SDS011;43627;42.728;23.256;2022-09-23T07:08:24;7.20;;;4.85;;
57800;SDS011;43627;42.728;23.256;2022-09-23T07:10:52;6.93;;;5.68;;
57800;SDS011;43627;42.728;23.256;2022-09-23T07:13:20;7.68;;;5.15;;
57800;SDS011;43627;42.728;23.256;2022-09-23T07:15:56;9.52;;;5.00;;
57800;SDS011;43627;42.728;23.256;2022-09-23T07:18:25;7.00;;;4.00;;
57800;SDS011;43627;42.728;23.256;2022-09-23T07:21:03;5.97;;;4.20;;
57800;SDS011;43627;42.728;23.256;2022-09-23T07:23:34;5.63;;;4.28;;
57800;SDS011;43627;42.728;23.256;2022-09-23T07:26:02;4.93;;;4.40;;
57800;SDS011;43627;42.728;23.256;2022-09-23T07:28:29;8.35;;;5.25;;
57800;SDS011;43627;42.728;23.256;2022-09-23T07:31:00;7.07;;;4.60;;
57800;SDS011;43627;42.728;23.256;2022-09-23T07:33:29;10.05;;;4.47;;
57800;SDS011;43627;42.728;23.256;2022-09-23T07:35:58;5.20;;;3.50;;
57800;SDS011;43627;42.728;23.256;2022-09-23T07:38:29;8.32;;;4.47;;
57800;SDS011;43627;42.728;23.256;2022-09-23T07:41:03;6.18;;;3.70;;
57800;SDS011;43627;42.728;23.256;2022-09-23T07:43:33;8.77;;;4.47;;
57800;SDS011;43627;42.728;23.256;2022-09-23T07:46:01;5.82;;;3.92;;
57800;SDS011;43627;42.728;23.256;2022-09-23T07:48:32;5.65;;;4.38;;
57800;SDS011;43627;42.728;23.256;2022-09-23T07:53:34;6.05;;;3.97;;
57800;SDS011;43627;42.728;23.256;2022-09-23T07:56:01;5.40;;;3.70;;
57800;SDS011;43627;42.728;23.256;2022-09-23T07:58:32;6.22;;;3.78;;
57800;SDS011;43627;42.728;23.256;2022-09-23T08:01:00;6.93;;;3.65;;
57800;SDS011;43627;42.728;23.256;2022-09-23T08:03:31;4.65;;;3.63;;
57800;SDS011;43627;42.728;23.256;2022-09-23T08:06:02;8.70;;;3.90;;
57800;SDS011;43627;42.728;23.256;2022-09-23T08:08:37;5.57;;;3.38;;
57800;SDS011;43627;42.728;23.256;2022-09-23T08:11:09;5.20;;;3.60;;
57800;SDS011;43627;42.728;23.256;2022-09-23T08:13:38;5.90;;;3.90;;
57800;SDS011;43627;42.728;23.256;2022-09-23T08:16:06;5.50;;;3.60;;
57800;SDS011;43627;42.728;23.256;2022-09-23T08:18:32;7.18;;;4.20;;
57800;SDS011;43627;42.728;23.256;2022-09-23T08:20:59;6.80;;;4.00;;
57800;SDS011;43627;42.728;23.256;2022-09-23T08:23:26;7.13;;;4.00;;
57800;SDS011;43627;42.728;23.256;2022-09-23T08:25:56;4.50;;;3.40;;
57800;SDS011;43627;42.728;23.256;2022-09-23T08:28:25;4.22;;;3.33;;
57800;SDS011;43627;42.728;23.256;2022-09-23T08:30:52;4.35;;;3.20;;
57800;SDS011;43627;42.728;23.256;2022-09-23T08:33:20;4.53;;;3.08;;
57800;SDS011;43627;42.728;23.256;2022-09-23T08:35:49;5.00;;;2.92;;
57800;SDS011;43627;42.728;23.256;2022-09-23T08:38:16;5.13;;;2.83;;
57800;SDS011;43627;42.728;23.256;2022-09-23T08:40:43;4.50;;;2.70;;
57800;SDS011;43627;42.728;23.256;2022-09-23T08:43:22;6.68;;;3.08;;
57800;SDS011;43627;42.728;23.256;2022-09-23T08:45:52;6.32;;;2.47;;
57800;SDS011;43627;42.728;23.256;2022-09-23T08:48:28;3.78;;;2.40;;
57800;SDS011;43627;42.728;23.256;2022-09-23T08:51:00;3.47;;;2.53;;
57800;SDS011;43627;42.728;23.256;2022-09-23T08:53:32;3.95;;;3.30;;
57800;SDS011;43627;42.728;23.256;2022-09-23T08:56:04;2.97;;;2.22;;
57800;SDS011;43627;42.728;23.256;2022-09-23T08:58:40;3.53;;;2.80;;
57800;SDS011;43627;42.728;23.256;2022-09-23T09:01:43;3.35;;;2.42;;
57800;SDS011;43627;42.728;23.256;2022-09-23T09:06:52;3.40;;;1.95;;
57800;SDS011;43627;42.728;23.256;2022-09-23T09:10:03;2.40;;;2.20;;
57800;SDS011;43627;42.728;23.256;2022-09-23T09:15:22;4.20;;;2.67;;
57800;SDS011;43627;42.728;23.256;2022-09-23T09:18:01;4.13;;;2.20;;
57800;SDS011;43627;42.728;23.256;2022-09-23T09:28:56;2.10;;;1.90;;
57800;SDS011;43627;42.728;23.256;2022-09-23T09:31:48;2.58;;;2.00;;
57800;SDS011;43627;42.728;23.256;2022-09-23T09:39:50;4.03;;;2.25;;
57800;SDS011;43627;42.728;23.256;2022-09-23T09:42:39;1.70;;;1.55;;
57800;SDS011;43627;42.728;23.256;2022-09-23T09:45:09;4.90;;;1.45;;
57800;SDS011;43627;42.728;23.256;2022-09-23T09:48:07;3.38;;;1.67;;
57800;SDS011;43627;42.728;23.256;2022-09-23T09:50:43;2.08;;;1.50;;
57800;SDS011;43627;42.728;23.256;2022-09-23T09:53:24;2.00;;;1.70;;
57800;SDS011;43627;42.728;23.256;2022-09-23T09:58:35;3.20;;;1.83;;
57800;SDS011;43627;42.728;23.256;2022-09-23T10:01:26;2.75;;;1.75;;
57800;SDS011;43627;42.728;23.256;2022-09-23T10:03:55;2.28;;;1.63;;
57800;SDS011;43627;42.728;23.256;2022-09-23T10:06:34;2.50;;;1.40;;
57800;SDS011;43627;42.728;23.256;2022-09-23T10:11:33;2.00;;;1.30;;
57800;SDS011;43627;42.728;23.256;2022-09-23T10:14:11;2.63;;;1.60;;
57800;SDS011;43627;42.728;23.256;2022-09-23T10:16:43;3.10;;;1.60;;
57800;SDS011;43627;42.728;23.256;2022-09-23T10:19:16;2.35;;;1.77;;
57800;SDS011;43627;42.728;23.256;2022-09-23T10:21:50;3.20;;;1.50;;
57800;SDS011;43627;42.728;23.256;2022-09-23T10:24:20;1.65;;;1.48;;
57800;SDS011;43627;42.728;23.256;2022-09-23T10:27:00;2.13;;;1.42;;
57800;SDS011;43627;42.728;23.256;2022-09-23T10:29:38;1.90;;;1.50;;
57800;SDS011;43627;42.728;23.256;2022-09-23T10:32:15;1.58;;;1.40;;
57800;SDS011;43627;42.728;23.256;2022-09-23T10:34:55;5.93;;;1.60;;
57800;SDS011;43627;42.728;23.256;2022-09-23T10:37:35;2.08;;;1.48;;
57800;SDS011;43627;42.728;23.256;2022-09-23T10:46:02;3.17;;;2.03;;
57800;SDS011;43627;42.728;23.256;2022-09-23T11:00:20;1.13;;;0.90;;
57800;SDS011;43627;42.728;23.256;2022-09-23T11:06:04;2.63;;;1.50;;
57800;SDS011;43627;42.728;23.256;2022-09-23T11:37:21;2.90;;;1.42;;
57800;SDS011;43627;42.728;23.256;2022-09-23T11:39:54;2.00;;;1.00;;
57800;SDS011;43627;42.728;23.256;2022-09-23T11:42:26;2.35;;;1.20;;
57800;SDS011;43627;42.728;23.256;2022-09-23T11:45:07;1.67;;;1.10;;
57800;SDS011;43627;42.728;23.256;2022-09-23T11:47:45;1.23;;;1.05;;
57800;SDS011;43627;42.728;23.256;2022-09-23T11:50:53;2.42;;;1.20;;
57800;SDS011;43627;42.728;23.256;2022-09-23T11:56:22;1.50;;;1.17;;
57800;SDS011;43627;42.728;23.256;2022-09-23T12:05:00;1.10;;;0.98;;
57800;SDS011;43627;42.728;23.256;2022-09-23T12:07:37;3.47;;;1.10;;
57800;SDS011;43627;42.728;23.256;2022-09-23T12:10:31;1.65;;;1.02;;
57800;SDS011;43627;42.728;23.256;2022-09-23T12:15:48;3.35;;;1.38;;
57800;SDS011;43627;42.728;23.256;2022-09-23T12:19:14;2.25;;;1.10;;
57800;SDS011;43627;42.728;23.256;2022-09-23T12:21:25;2.40;;;1.60;;
57800;SDS011;43627;42.728;23.256;2022-09-23T12:26:56;1.85;;;1.02;;
57800;SDS011;43627;42.728;23.256;2022-09-23T12:29:27;3.78;;;0.85;;
57800;SDS011;43627;42.728;23.256;2022-09-23T12:31:57;1.90;;;1.23;;
57800;SDS011;43627;42.728;23.256;2022-09-23T12:34:37;1.25;;;0.88;;
57800;SDS011;43627;42.728;23.256;2022-09-23T12:37:06;1.67;;;0.80;;
57800;SDS011;43627;42.728;23.256;2022-09-23T12:39:34;1.50;;;1.00;;
57800;SDS011;43627;42.728;23.256;2022-09-23T12:42:04;2.13;;;1.00;;
57800;SDS011;43627;42.728;23.256;2022-09-23T12:44:40;6.10;;;1.30;;
57800;SDS011;43627;42.728;23.256;2022-09-23T12:49:51;4.80;;;1.20;;
57800;SDS011;43627;42.728;23.256;2022-09-23T12:52:29;0.93;;;0.80;;
57800;SDS011;43627;42.728;23.256;2022-09-23T12:57:43;2.33;;;0.95;;
57800;SDS011;43627;42.728;23.256;2022-09-23T13:02:42;1.08;;;0.98;;
57800;SDS011;43627;42.728;23.256;2022-09-23T13:05:57;2.58;;;1.05;;
57800;SDS011;43627;42.728;23.256;2022-09-23T13:08:45;1.13;;;0.90;;
57800;SDS011;43627;42.728;23.256;2022-09-23T13:11:24;2.08;;;0.80;;
57800;SDS011;43627;42.728;23.256;2022-09-23T13:13:54;1.23;;;0.98;;
57800;SDS011;43627;42.728;23.256;2022-09-23T13:16:28;1.80;;;1.27;;
57800;SDS011;43627;42.728;23.256;2022-09-23T13:26:45;1.92;;;1.45;;
57800;SDS011;43627;42.728;23.256;2022-09-23T13:29:16;4.35;;;2.50;;
57800;SDS011;43627;42.728;23.256;2022-09-23T13:31:48;1.58;;;1.20;;
57800;SDS011;43627;42.728;23.256;2022-09-23T13:34:17;2.83;;;1.80;;
57800;SDS011;43627;42.728;23.256;2022-09-23T13:36:48;2.17;;;1.48;;
57800;SDS011;43627;42.728;23.256;2022-09-23T13:39:22;1.13;;;1.00;;
57800;SDS011;43627;42.728;23.256;2022-09-23T13:41:51;2.17;;;1.25;;
57800;SDS011;43627;42.728;23.256;2022-09-23T13:44:21;2.95;;;1.25;;
57800;SDS011;43627;42.728;23.256;2022-09-23T13:46:52;2.72;;;1.20;;
57800;SDS011;43627;42.728;23.256;2022-09-23T13:49:26;1.42;;;1.30;;
57800;SDS011;43627;42.728;23.256;2022-09-23T13:51:56;1.92;;;1.33;;
57800;SDS011;43627;42.728;23.256;2022-09-23T13:54:33;2.35;;;1.50;;
57800;SDS011;43627;42.728;23.256;2022-09-23T13:59:52;1.63;;;0.88;;
57800;SDS011;43627;42.728;23.256;2022-09-23T14:02:19;1.67;;;1.20;;
57800;SDS011;43627;42.728;23.256;2022-09-23T14:04:45;5.97;;;1.98;;
57800;SDS011;43627;42.728;23.256;2022-09-23T14:07:13;2.75;;;1.75;;
57800;SDS011;43627;42.728;23.256;2022-09-23T14:09:42;1.65;;;1.48;;
57800;SDS011;43627;42.728;23.256;2022-09-23T14:12:12;3.30;;;1.40;;
57800;SDS011;43627;42.728;23.256;2022-09-23T14:14:39;9.50;;;1.75;;
57800;SDS011;43627;42.728;23.256;2022-09-23T14:17:07;2.50;;;1.70;;
57800;SDS011;43627;42.728;23.256;2022-09-23T14:19:41;5.38;;;2.00;;
57800;SDS011;43627;42.728;23.256;2022-09-23T14:22:22;1.83;;;1.30;;
57800;SDS011;43627;42.728;23.256;2022-09-23T14:24:51;1.77;;;1.20;;
57800;SDS011;43627;42.728;23.256;2022-09-23T14:27:27;5.45;;;2.78;;
57800;SDS011;43627;42.728;23.256;2022-09-23T14:29:55;2.63;;;1.85;;
57800;SDS011;43627;42.728;23.256;2022-09-23T14:32:24;1.80;;;1.00;;
57800;SDS011;43627;42.728;23.256;2022-09-23T14:40:21;1.45;;;1.10;;
57800;SDS011;43627;42.728;23.256;2022-09-23T14:42:57;1.70;;;1.13;;
57800;SDS011;43627;42.728;23.256;2022-09-23T14:45:30;1.67;;;1.00;;
57800;SDS011;43627;42.728;23.256;2022-09-23T14:50:35;2.03;;;1.05;;
57800;SDS011;43627;42.728;23.256;2022-09-23T14:53:02;2.20;;;1.42;;
57800;SDS011;43627;42.728;23.256;2022-09-23T14:55:29;1.50;;;1.17;;
57800;SDS011;43627;42.728;23.256;2022-09-23T14:58:03;2.22;;;1.38;;
57800;SDS011;43627;42.728;23.256;2022-09-23T15:00:36;6.45;;;1.27;;
57800;SDS011;43627;42.728;23.256;2022-09-23T15:03:10;2.30;;;1.73;;
57800;SDS011;43627;42.728;23.256;2022-09-23T15:05:41;2.08;;;1.67;;
57800;SDS011;43627;42.728;23.256;2022-09-23T15:08:12;2.50;;;1.58;;
57800;SDS011;43627;42.728;23.256;2022-09-23T15:10:42;4.28;;;2.13;;
57800;SDS011;43627;42.728;23.256;2022-09-23T15:13:13;2.65;;;1.70;;
57800;SDS011;43627;42.728;23.256;2022-09-23T15:15:40;2.92;;;1.58;;
57800;SDS011;43627;42.728;23.256;2022-09-23T15:18:16;5.07;;;2.92;;
57800;SDS011;43627;42.728;23.256;2022-09-23T15:20:48;8.88;;;6.07;;
57800;SDS011;43627;42.728;23.256;2022-09-23T15:23:30;2.10;;;1.73;;
57800;SDS011;43627;42.728;23.256;2022-09-23T15:26:14;3.28;;;1.80;;
57800;SDS011;43627;42.728;23.256;2022-09-23T15:28:45;2.05;;;1.73;;
57800;SDS011;43627;42.728;23.256;2022-09-23T15:31:14;8.93;;;3.13;;
57800;SDS011;43627;42.728;23.256;2022-09-23T15:33:48;3.95;;;1.70;;
57800;SDS011;43627;42.728;23.256;2022-09-23T15:36:22;6.95;;;3.50;;
57800;SDS011;43627;42.728;23.256;2022-09-23T15:38:53;3.88;;;2.17;;
57800;SDS011;43627;42.728;23.256;2022-09-23T15:41:23;5.55;;;2.58;;
57800;SDS011;43627;42.728;23.256;2022-09-23T15:43:50;3.42;;;1.67;;
57800;SDS011;43627;42.728;23.256;2022-09-23T15:46:18;5.45;;;2.42;;
57800;SDS011;43627;42.728;23.256;2022-09-23T15:48:57;4.60;;;2.08;;
57800;SDS011;43627;42.728;23.256;2022-09-23T15:51:27;9.05;;;4.03;;
57800;SDS011;43627;42.728;23.256;2022-09-23T15:53:54;3.55;;;2.08;;
57800;SDS011;43627;42.728;23.256;2022-09-23T15:56:22;3.72;;;2.22;;
57800;SDS011;43627;42.728;23.256;2022-09-23T15:58:50;4.47;;;2.30;;
57800;SDS011;43627;42.728;23.256;2022-09-23T16:03:54;2.70;;;1.38;;
57800;SDS011;43627;42.728;23.256;2022-09-23T16:06:21;4.60;;;2.45;;
57800;SDS011;43627;42.728;23.256;2022-09-23T16:08:49;3.22;;;2.05;;
57800;SDS011;43627;42.728;23.256;2022-09-23T16:11:18;5.55;;;1.80;;
57800;SDS011;43627;42.728;23.256;2022-09-23T16:13:49;2.90;;;1.73;;
57800;SDS011;43627;42.728;23.256;2022-09-23T16:16:16;3.53;;;1.90;;
57800;SDS011;43627;42.728;23.256;2022-09-23T16:18:46;2.78;;;1.90;;
57800;SDS011;43627;42.728;23.256;2022-09-23T16:21:14;7.65;;;4.60;;
57800;SDS011;43627;42.728;23.256;2022-09-23T16:23:44;3.20;;;2.00;;
57800;SDS011;43627;42.728;23.256;2022-09-23T16:26:21;4.22;;;2.50;;
57800;SDS011;43627;42.728;23.256;2022-09-23T16:28:53;5.47;;;2.28;;
57800;SDS011;43627;42.728;23.256;2022-09-23T16:31:22;9.63;;;3.33;;
57800;SDS011;43627;42.728;23.256;2022-09-23T16:33:51;3.58;;;2.65;;
57800;SDS011;43627;42.728;23.256;2022-09-23T16:38:52;5.97;;;4.03;;
57800;SDS011;43627;42.728;23.256;2022-09-23T16:41:23;5.88;;;3.13;;
57800;SDS011;43627;42.728;23.256;2022-09-23T16:43:51;5.13;;;3.35;;
57800;SDS011;43627;42.728;23.256;2022-09-23T16:46:18;10.75;;;6.25;;
57800;SDS011;43627;42.728;23.256;2022-09-23T16:48:46;5.38;;;3.55;;
57800;SDS011;43627;42.728;23.256;2022-09-23T16:51:19;6.72;;;2.97;;
57800;SDS011;43627;42.728;23.256;2022-09-23T16:53:47;7.28;;;4.05;;
57800;SDS011;43627;42.728;23.256;2022-09-23T16:56:15;3.65;;;2.30;;
57800;SDS011;43627;42.728;23.256;2022-09-23T16:58:43;14.40;;;8.20;;
57800;SDS011;43627;42.728;23.256;2022-09-23T17:01:28;3.45;;;2.40;;
57800;SDS011;43627;42.728;23.256;2022-09-23T17:04:14;7.43;;;2.40;;
57800;SDS011;43627;42.728;23.256;2022-09-23T17:06:44;6.32;;;3.50;;
57800;SDS011;43627;42.728;23.256;2022-09-23T17:09:19;18.65;;;9.98;;
57800;SDS011;43627;42.728;23.256;2022-09-23T17:11:50;6.70;;;3.65;;
57800;SDS011;43627;42.728;23.256;2022-09-23T17:14:30;6.00;;;4.28;;
57800;SDS011;43627;42.728;23.256;2022-09-23T17:16:57;16.10;;;7.20;;
57800;SDS011;43627;42.728;23.256;2022-09-23T17:19:24;9.35;;;4.47;;
57800;SDS011;43627;42.728;23.256;2022-09-23T17:21:51;5.45;;;3.63;;
57800;SDS011;43627;42.728;23.256;2022-09-23T17:24:18;8.80;;;3.03;;
57800;SDS011;43627;42.728;23.256;2022-09-23T17:26:45;6.00;;;3.10;;
57800;SDS011;43627;42.728;23.256;2022-09-23T17:29:18;6.10;;;3.08;;
57800;SDS011;43627;42.728;23.256;2022-09-23T17:31:44;5.10;;;3.20;;
57800;SDS011;43627;42.728;23.256;2022-09-23T17:34:11;7.53;;;3.60;;
57800;SDS011;43627;42.728;23.256;2022-09-23T17:36:38;6.72;;;3.45;;
57800;SDS011;43627;42.728;23.256;2022-09-23T17:39:05;10.07;;;4.65;;
57800;SDS011;43627;42.728;23.256;2022-09-23T17:41:35;20.25;;;9.38;;
57800;SDS011;43627;42.728;23.256;2022-09-23T17:44:09;8.15;;;4.78;;